sensor_id;sensor_type;location;lat;lon;timestamp;P1;durP1;ratioP1;P2;durP2;ratioP2
23608;SDS011;11982;50.810;4.442;2024-03-29T00:00:56;5.13;;;0.88;;
23608;SDS011;11982;50.810;4.442;2024-03-29T00:03:23;5.03;;;1.10;;
23608;SDS011;11982;50.810;4.442;2024-03-29T00:05:49;4.88;;;0.90;;
23608;SDS011;11982;50.810;4.442;2024-03-29T00:08:15;6.32;;;1.55;;
23608;SDS011;11982;50.810;4.442;2024-03-29T00:10:40;8.55;;;1.20;;
23608;SDS011;11982;50.810;4.442;2024-03-29T00:13:06;8.05;;;1.27;;
23608;SDS011;11982;50.810;4.442;2024-03-29T00:15:32;5.35;;;0.93;;
23608;SDS011;11982;50.810;4.442;2024-03-29T00:17:58;2.38;;;0.65;;
23608;SDS011;11982;50.810;4.442;2024-03-29T00:20:24;6.28;;;0.88;;
23608;SDS011;11982;50.810;4.442;2024-03-29T00:22:49;3.35;;;0.93;;
23608;SDS011;11982;50.810;4.442;2024-03-29T00:25:15;5.65;;;1.20;;
23608;SDS011;11982;50.810;4.442;2024-03-29T00:27:41;3.38;;;0.70;;
23608;SDS011;11982;50.810;4.442;2024-03-29T00:30:08;4.97;;;1.00;;
23608;SDS011;11982;50.810;4.442;2024-03-29T00:32:34;5.63;;;1.35;;
23608;SDS011;11982;50.810;4.442;2024-03-29T00:35:00;7.25;;;0.98;;
23608;SDS011;11982;50.810;4.442;2024-03-29T00:37:25;7.60;;;1.40;;
23608;SDS011;11982;50.810;4.442;2024-03-29T00:39:51;4.85;;;0.95;;
23608;SDS011;11982;50.810;4.442;2024-03-29T00:42:17;11.82;;;1.30;;
23608;SDS011;11982;50.810;4.442;2024-03-29T00:44:44;9.98;;;0.98;;
23608;SDS011;11982;50.810;4.442;2024-03-29T00:47:10;3.67;;;1.10;;
23608;SDS011;11982;50.810;4.442;2024-03-29T00:49:36;5.20;;;0.90;;
23608;SDS011;11982;50.810;4.442;2024-03-29T00:52:02;7.45;;;1.02;;
23608;SDS011;11982;50.810;4.442;2024-03-29T00:54:28;5.57;;;0.88;;
23608;SDS011;11982;50.810;4.442;2024-03-29T00:56:55;4.28;;;0.90;;
23608;SDS011;11982;50.810;4.442;2024-03-29T00:59:21;2.97;;;0.80;;
23608;SDS011;11982;50.810;4.442;2024-03-29T01:01:46;5.25;;;0.70;;
23608;SDS011;11982;50.810;4.442;2024-03-29T01:04:12;7.50;;;1.40;;
23608;SDS011;11982;50.810;4.442;2024-03-29T01:06:38;2.95;;;0.82;;
23608;SDS011;11982;50.810;4.442;2024-03-29T01:09:05;3.70;;;0.77;;
23608;SDS011;11982;50.810;4.442;2024-03-29T01:11:31;4.18;;;0.80;;
23608;SDS011;11982;50.810;4.442;2024-03-29T01:13:57;3.22;;;1.27;;
23608;SDS011;11982;50.810;4.442;2024-03-29T01:16:23;6.35;;;0.65;;
23608;SDS011;11982;50.810;4.442;2024-03-29T01:18:49;6.57;;;0.98;;
23608;SDS011;11982;50.810;4.442;2024-03-29T01:21:16;4.13;;;0.80;;
23608;SDS011;11982;50.810;4.442;2024-03-29T01:23:43;4.53;;;1.33;;
23608;SDS011;11982;50.810;4.442;2024-03-29T01:26:08;1.02;;;0.60;;
23608;SDS011;11982;50.810;4.442;2024-03-29T01:28:36;4.00;;;1.00;;
23608;SDS011;11982;50.810;4.442;2024-03-29T01:31:02;2.42;;;0.60;;
23608;SDS011;11982;50.810;4.442;2024-03-29T01:33:29;6.32;;;1.20;;
23608;SDS011;11982;50.810;4.442;2024-03-29T01:35:58;3.65;;;0.80;;
23608;SDS011;11982;50.810;4.442;2024-03-29T01:38:23;3.40;;;0.88;;
23608;SDS011;11982;50.810;4.442;2024-03-29T01:40:49;7.13;;;0.70;;
23608;SDS011;11982;50.810;4.442;2024-03-29T01:43:15;1.73;;;0.50;;
23608;SDS011;11982;50.810;4.442;2024-03-29T01:45:41;9.63;;;1.95;;
23608;SDS011;11982;50.810;4.442;2024-03-29T01:48:08;4.35;;;0.70;;
23608;SDS011;11982;50.810;4.442;2024-03-29T01:50:35;4.88;;;0.68;;
23608;SDS011;11982;50.810;4.442;2024-03-29T01:53:02;6.15;;;1.23;;
23608;SDS011;11982;50.810;4.442;2024-03-29T01:55:30;3.25;;;0.60;;
23608;SDS011;11982;50.810;4.442;2024-03-29T01:57:56;0.88;;;0.43;;
23608;SDS011;11982;50.810;4.442;2024-03-29T02:00:23;2.83;;;0.80;;
23608;SDS011;11982;50.810;4.442;2024-03-29T02:02:48;3.47;;;0.45;;
23608;SDS011;11982;50.810;4.442;2024-03-29T02:05:14;6.40;;;0.60;;
23608;SDS011;11982;50.810;4.442;2024-03-29T02:07:40;3.20;;;0.50;;
23608;SDS011;11982;50.810;4.442;2024-03-29T02:10:09;2.75;;;0.50;;
23608;SDS011;11982;50.810;4.442;2024-03-29T02:12:37;1.40;;;0.40;;
23608;SDS011;11982;50.810;4.442;2024-03-29T02:15:04;1.13;;;0.50;;
23608;SDS011;11982;50.810;4.442;2024-03-29T02:17:31;1.48;;;0.35;;
23608;SDS011;11982;50.810;4.442;2024-03-29T02:19:57;2.92;;;0.50;;
23608;SDS011;11982;50.810;4.442;2024-03-29T02:22:24;1.08;;;0.30;;
23608;SDS011;11982;50.810;4.442;2024-03-29T02:24:50;3.05;;;0.63;;
23608;SDS011;11982;50.810;4.442;2024-03-29T02:27:17;1.17;;;0.60;;
23608;SDS011;11982;50.810;4.442;2024-03-29T02:29:42;3.30;;;0.30;;
23608;SDS011;11982;50.810;4.442;2024-03-29T02:32:08;1.92;;;0.80;;
23608;SDS011;11982;50.810;4.442;2024-03-29T02:34:34;1.67;;;0.32;;
23608;SDS011;11982;50.810;4.442;2024-03-29T02:36:59;5.07;;;0.50;;
23608;SDS011;11982;50.810;4.442;2024-03-29T02:39:26;0.60;;;0.30;;
23608;SDS011;11982;50.810;4.442;2024-03-29T02:41:52;2.92;;;0.70;;
23608;SDS011;11982;50.810;4.442;2024-03-29T02:44:17;3.00;;;0.60;;
23608;SDS011;11982;50.810;4.442;2024-03-29T02:46:43;4.78;;;0.60;;
23608;SDS011;11982;50.810;4.442;2024-03-29T02:49:09;5.15;;;0.82;;
23608;SDS011;11982;50.810;4.442;2024-03-29T02:51:35;1.63;;;0.50;;
23608;SDS011;11982;50.810;4.442;2024-03-29T02:54:01;5.57;;;0.80;;
23608;SDS011;11982;50.810;4.442;2024-03-29T02:56:27;1.65;;;0.50;;
23608;SDS011;11982;50.810;4.442;2024-03-29T02:58:53;6.03;;;0.60;;
23608;SDS011;11982;50.810;4.442;2024-03-29T03:01:19;3.65;;;0.63;;
23608;SDS011;11982;50.810;4.442;2024-03-29T03:03:45;4.90;;;1.25;;
23608;SDS011;11982;50.810;4.442;2024-03-29T03:06:11;2.30;;;0.80;;
23608;SDS011;11982;50.810;4.442;2024-03-29T03:08:37;5.85;;;1.02;;
23608;SDS011;11982;50.810;4.442;2024-03-29T03:11:21;7.53;;;0.80;;
23608;SDS011;11982;50.810;4.442;2024-03-29T03:13:46;6.63;;;1.20;;
23608;SDS011;11982;50.810;4.442;2024-03-29T03:16:12;4.32;;;1.00;;
23608;SDS011;11982;50.810;4.442;2024-03-29T03:18:38;5.78;;;0.77;;
23608;SDS011;11982;50.810;4.442;2024-03-29T03:21:04;4.90;;;1.08;;
23608;SDS011;11982;50.810;4.442;2024-03-29T03:23:30;5.40;;;0.98;;
23608;SDS011;11982;50.810;4.442;2024-03-29T03:25:56;7.20;;;1.20;;
23608;SDS011;11982;50.810;4.442;2024-03-29T03:28:26;5.93;;;1.00;;
23608;SDS011;11982;50.810;4.442;2024-03-29T03:30:52;6.18;;;0.90;;
23608;SDS011;11982;50.810;4.442;2024-03-29T03:33:19;3.13;;;0.85;;
23608;SDS011;11982;50.810;4.442;2024-03-29T03:35:45;3.67;;;0.82;;
23608;SDS011;11982;50.810;4.442;2024-03-29T03:38:11;5.60;;;1.25;;
23608;SDS011;11982;50.810;4.442;2024-03-29T03:40:37;3.47;;;0.90;;
23608;SDS011;11982;50.810;4.442;2024-03-29T03:43:04;5.07;;;1.23;;
23608;SDS011;11982;50.810;4.442;2024-03-29T03:45:36;2.88;;;0.82;;
23608;SDS011;11982;50.810;4.442;2024-03-29T03:48:06;5.65;;;1.10;;
23608;SDS011;11982;50.810;4.442;2024-03-29T03:50:33;3.28;;;1.02;;
23608;SDS011;11982;50.810;4.442;2024-03-29T03:52:59;9.88;;;1.25;;
23608;SDS011;11982;50.810;4.442;2024-03-29T03:55:25;7.05;;;1.00;;
23608;SDS011;11982;50.810;4.442;2024-03-29T03:57:51;4.70;;;0.68;;
23608;SDS011;11982;50.810;4.442;2024-03-29T04:00:18;1.83;;;0.80;;
23608;SDS011;11982;50.810;4.442;2024-03-29T04:02:50;3.83;;;1.00;;
23608;SDS011;11982;50.810;4.442;2024-03-29T04:05:19;1.65;;;0.63;;
23608;SDS011;11982;50.810;4.442;2024-03-29T04:07:45;4.75;;;0.93;;
23608;SDS011;11982;50.810;4.442;2024-03-29T04:10:11;2.47;;;0.82;;
23608;SDS011;11982;50.810;4.442;2024-03-29T04:12:37;2.80;;;0.90;;
23608;SDS011;11982;50.810;4.442;2024-03-29T04:15:03;5.15;;;0.90;;
23608;SDS011;11982;50.810;4.442;2024-03-29T04:17:30;5.30;;;1.35;;
23608;SDS011;11982;50.810;4.442;2024-03-29T04:19:56;9.00;;;1.40;;
23608;SDS011;11982;50.810;4.442;2024-03-29T04:22:23;3.10;;;0.88;;
23608;SDS011;11982;50.810;4.442;2024-03-29T04:24:49;4.22;;;0.80;;
23608;SDS011;11982;50.810;4.442;2024-03-29T04:27:15;7.40;;;1.10;;
23608;SDS011;11982;50.810;4.442;2024-03-29T04:29:41;5.00;;;1.45;;
23608;SDS011;11982;50.810;4.442;2024-03-29T04:32:07;5.93;;;1.05;;
23608;SDS011;11982;50.810;4.442;2024-03-29T04:34:33;3.42;;;0.80;;
23608;SDS011;11982;50.810;4.442;2024-03-29T04:36:59;5.45;;;1.30;;
23608;SDS011;11982;50.810;4.442;2024-03-29T04:39:24;5.50;;;1.13;;
23608;SDS011;11982;50.810;4.442;2024-03-29T04:41:50;2.97;;;1.30;;
23608;SDS011;11982;50.810;4.442;2024-03-29T04:44:25;3.40;;;1.30;;
23608;SDS011;11982;50.810;4.442;2024-03-29T04:46:53;5.47;;;1.38;;
23608;SDS011;11982;50.810;4.442;2024-03-29T04:49:19;9.75;;;1.80;;
23608;SDS011;11982;50.810;4.442;2024-03-29T04:51:58;6.88;;;1.63;;
23608;SDS011;11982;50.810;4.442;2024-03-29T04:54:24;13.52;;;1.38;;
23608;SDS011;11982;50.810;4.442;2024-03-29T04:56:52;4.75;;;0.95;;
23608;SDS011;11982;50.810;4.442;2024-03-29T04:59:18;5.05;;;0.80;;
23608;SDS011;11982;50.810;4.442;2024-03-29T05:01:45;3.33;;;1.10;;
23608;SDS011;11982;50.810;4.442;2024-03-29T05:04:18;2.97;;;1.30;;
23608;SDS011;11982;50.810;4.442;2024-03-29T05:06:50;3.42;;;1.00;;
23608;SDS011;11982;50.810;4.442;2024-03-29T05:09:17;3.03;;;1.30;;
23608;SDS011;11982;50.810;4.442;2024-03-29T05:11:43;1.60;;;0.82;;
23608;SDS011;11982;50.810;4.442;2024-03-29T05:14:08;3.67;;;1.15;;
23608;SDS011;11982;50.810;4.442;2024-03-29T05:16:35;11.52;;;1.85;;
23608;SDS011;11982;50.810;4.442;2024-03-29T05:19:00;2.67;;;0.90;;
23608;SDS011;11982;50.810;4.442;2024-03-29T05:21:26;1.65;;;0.80;;
23608;SDS011;11982;50.810;4.442;2024-03-29T05:23:52;2.58;;;1.15;;
23608;SDS011;11982;50.810;4.442;2024-03-29T05:26:18;3.22;;;0.70;;
23608;SDS011;11982;50.810;4.442;2024-03-29T05:28:44;6.00;;;1.10;;
23608;SDS011;11982;50.810;4.442;2024-03-29T05:31:13;4.25;;;0.90;;
23608;SDS011;11982;50.810;4.442;2024-03-29T05:33:40;3.00;;;0.95;;
23608;SDS011;11982;50.810;4.442;2024-03-29T05:36:06;4.88;;;1.15;;
23608;SDS011;11982;50.810;4.442;2024-03-29T05:38:33;6.63;;;1.27;;
23608;SDS011;11982;50.810;4.442;2024-03-29T05:40:59;1.95;;;0.80;;
23608;SDS011;11982;50.810;4.442;2024-03-29T05:43:25;2.88;;;1.05;;
23608;SDS011;11982;50.810;4.442;2024-03-29T05:45:52;2.95;;;1.23;;
23608;SDS011;11982;50.810;4.442;2024-03-29T05:48:18;6.18;;;1.48;;
23608;SDS011;11982;50.810;4.442;2024-03-29T05:50:44;7.13;;;1.50;;
23608;SDS011;11982;50.810;4.442;2024-03-29T05:53:10;3.70;;;1.20;;
23608;SDS011;11982;50.810;4.442;2024-03-29T05:55:36;5.50;;;1.48;;
23608;SDS011;11982;50.810;4.442;2024-03-29T05:58:02;6.45;;;1.48;;
23608;SDS011;11982;50.810;4.442;2024-03-29T06:00:28;4.68;;;1.40;;
23608;SDS011;11982;50.810;4.442;2024-03-29T06:02:54;7.13;;;1.70;;
23608;SDS011;11982;50.810;4.442;2024-03-29T06:05:20;6.63;;;1.42;;
23608;SDS011;11982;50.810;4.442;2024-03-29T06:07:45;3.97;;;1.38;;
23608;SDS011;11982;50.810;4.442;2024-03-29T06:10:11;8.30;;;1.33;;
23608;SDS011;11982;50.810;4.442;2024-03-29T06:12:37;3.30;;;1.33;;
23608;SDS011;11982;50.810;4.442;2024-03-29T06:15:06;7.43;;;1.77;;
23608;SDS011;11982;50.810;4.442;2024-03-29T06:17:50;7.00;;;1.92;;
23608;SDS011;11982;50.810;4.442;2024-03-29T06:20:16;8.73;;;2.15;;
23608;SDS011;11982;50.810;4.442;2024-03-29T06:22:42;6.53;;;1.92;;
23608;SDS011;11982;50.810;4.442;2024-03-29T06:25:07;10.07;;;2.25;;
23608;SDS011;11982;50.810;4.442;2024-03-29T06:27:34;9.43;;;2.15;;
23608;SDS011;11982;50.810;4.442;2024-03-29T06:30:01;8.45;;;2.45;;
23608;SDS011;11982;50.810;4.442;2024-03-29T06:32:28;5.07;;;1.92;;
23608;SDS011;11982;50.810;4.442;2024-03-29T06:34:55;6.45;;;2.40;;
23608;SDS011;11982;50.810;4.442;2024-03-29T06:37:21;3.30;;;1.75;;
23608;SDS011;11982;50.810;4.442;2024-03-29T06:39:49;3.45;;;1.70;;
23608;SDS011;11982;50.810;4.442;2024-03-29T06:42:16;7.25;;;2.10;;
23608;SDS011;11982;50.810;4.442;2024-03-29T06:44:41;6.25;;;2.58;;
23608;SDS011;11982;50.810;4.442;2024-03-29T06:47:07;8.93;;;2.00;;
23608;SDS011;11982;50.810;4.442;2024-03-29T06:49:33;6.32;;;1.77;;
23608;SDS011;11982;50.810;4.442;2024-03-29T06:51:59;4.63;;;1.60;;
23608;SDS011;11982;50.810;4.442;2024-03-29T06:54:26;8.27;;;1.90;;
23608;SDS011;11982;50.810;4.442;2024-03-29T06:56:53;2.92;;;1.50;;
23608;SDS011;11982;50.810;4.442;2024-03-29T06:59:19;4.93;;;2.03;;
23608;SDS011;11982;50.810;4.442;2024-03-29T07:01:45;5.55;;;1.83;;
23608;SDS011;11982;50.810;4.442;2024-03-29T07:04:12;5.32;;;1.70;;
23608;SDS011;11982;50.810;4.442;2024-03-29T07:06:38;8.98;;;2.30;;
23608;SDS011;11982;50.810;4.442;2024-03-29T07:09:06;7.10;;;2.35;;
23608;SDS011;11982;50.810;4.442;2024-03-29T07:11:32;10.32;;;2.25;;
23608;SDS011;11982;50.810;4.442;2024-03-29T07:13:58;5.78;;;1.88;;
23608;SDS011;11982;50.810;4.442;2024-03-29T07:16:23;4.45;;;1.92;;
23608;SDS011;11982;50.810;4.442;2024-03-29T07:18:49;7.55;;;2.35;;
23608;SDS011;11982;50.810;4.442;2024-03-29T07:21:14;5.93;;;2.38;;
23608;SDS011;11982;50.810;4.442;2024-03-29T07:23:40;5.85;;;2.10;;
23608;SDS011;11982;50.810;4.442;2024-03-29T07:26:06;7.25;;;2.80;;
23608;SDS011;11982;50.810;4.442;2024-03-29T07:28:32;6.80;;;2.53;;
23608;SDS011;11982;50.810;4.442;2024-03-29T07:30:57;11.80;;;2.70;;
23608;SDS011;11982;50.810;4.442;2024-03-29T07:33:29;7.78;;;2.45;;
23608;SDS011;11982;50.810;4.442;2024-03-29T07:35:55;10.40;;;2.38;;
23608;SDS011;11982;50.810;4.442;2024-03-29T07:38:21;6.63;;;2.20;;
23608;SDS011;11982;50.810;4.442;2024-03-29T07:40:48;6.85;;;2.42;;
23608;SDS011;11982;50.810;4.442;2024-03-29T07:43:15;9.35;;;2.35;;
23608;SDS011;11982;50.810;4.442;2024-03-29T07:45:41;4.93;;;2.17;;
23608;SDS011;11982;50.810;4.442;2024-03-29T07:48:11;6.97;;;2.30;;
23608;SDS011;11982;50.810;4.442;2024-03-29T07:50:44;6.28;;;2.38;;
23608;SDS011;11982;50.810;4.442;2024-03-29T07:53:10;7.05;;;2.40;;
23608;SDS011;11982;50.810;4.442;2024-03-29T07:55:37;4.55;;;2.60;;
23608;SDS011;11982;50.810;4.442;2024-03-29T07:58:05;7.55;;;2.53;;
23608;SDS011;11982;50.810;4.442;2024-03-29T08:00:31;5.47;;;2.60;;
23608;SDS011;11982;50.810;4.442;2024-03-29T08:02:57;4.68;;;2.33;;
23608;SDS011;11982;50.810;4.442;2024-03-29T08:05:27;4.78;;;2.42;;
23608;SDS011;11982;50.810;4.442;2024-03-29T08:07:53;6.13;;;2.25;;
23608;SDS011;11982;50.810;4.442;2024-03-29T08:10:20;5.93;;;2.28;;
23608;SDS011;11982;50.810;4.442;2024-03-29T08:12:46;8.00;;;2.50;;
23608;SDS011;11982;50.810;4.442;2024-03-29T08:15:11;5.55;;;2.63;;
23608;SDS011;11982;50.810;4.442;2024-03-29T08:17:37;6.03;;;2.30;;
23608;SDS011;11982;50.810;4.442;2024-03-29T08:20:03;5.45;;;2.70;;
23608;SDS011;11982;50.810;4.442;2024-03-29T08:22:29;4.85;;;2.78;;
23608;SDS011;11982;50.810;4.442;2024-03-29T08:24:58;6.72;;;2.42;;
23608;SDS011;11982;50.810;4.442;2024-03-29T08:27:24;8.32;;;2.97;;
23608;SDS011;11982;50.810;4.442;2024-03-29T08:29:51;7.72;;;2.42;;
23608;SDS011;11982;50.810;4.442;2024-03-29T08:32:17;4.75;;;2.70;;
23608;SDS011;11982;50.810;4.442;2024-03-29T08:34:42;4.22;;;2.90;;
23608;SDS011;11982;50.810;4.442;2024-03-29T08:37:08;7.75;;;2.88;;
23608;SDS011;11982;50.810;4.442;2024-03-29T08:39:34;4.43;;;2.70;;
23608;SDS011;11982;50.810;4.442;2024-03-29T08:42:02;7.43;;;2.58;;
23608;SDS011;11982;50.810;4.442;2024-03-29T08:44:33;5.63;;;3.17;;
23608;SDS011;11982;50.810;4.442;2024-03-29T08:47:00;8.65;;;3.10;;
23608;SDS011;11982;50.810;4.442;2024-03-29T08:49:29;4.30;;;2.28;;
23608;SDS011;11982;50.810;4.442;2024-03-29T08:52:01;4.20;;;2.25;;
23608;SDS011;11982;50.810;4.442;2024-03-29T08:54:30;3.70;;;2.50;;
23608;SDS011;11982;50.810;4.442;2024-03-29T08:56:55;8.05;;;2.25;;
23608;SDS011;11982;50.810;4.442;2024-03-29T08:59:22;4.82;;;2.15;;
23608;SDS011;11982;50.810;4.442;2024-03-29T09:01:47;4.78;;;1.60;;
23608;SDS011;11982;50.810;4.442;2024-03-29T09:04:14;5.97;;;1.88;;
23608;SDS011;11982;50.810;4.442;2024-03-29T09:06:40;2.85;;;1.50;;
23608;SDS011;11982;50.810;4.442;2024-03-29T09:09:07;5.13;;;1.63;;
23608;SDS011;11982;50.810;4.442;2024-03-29T09:11:33;1.88;;;1.60;;
23608;SDS011;11982;50.810;4.442;2024-03-29T09:13:58;4.63;;;1.80;;
23608;SDS011;11982;50.810;4.442;2024-03-29T09:16:25;4.18;;;1.58;;
23608;SDS011;11982;50.810;4.442;2024-03-29T09:18:50;4.63;;;1.20;;
23608;SDS011;11982;50.810;4.442;2024-03-29T09:21:17;4.88;;;1.10;;
23608;SDS011;11982;50.810;4.442;2024-03-29T09:23:42;2.15;;;1.10;;
23608;SDS011;11982;50.810;4.442;2024-03-29T09:26:10;4.93;;;1.52;;
23608;SDS011;11982;50.810;4.442;2024-03-29T09:28:37;1.55;;;1.10;;
23608;SDS011;11982;50.810;4.442;2024-03-29T09:31:03;4.88;;;1.20;;
23608;SDS011;11982;50.810;4.442;2024-03-29T09:33:28;4.18;;;1.02;;
23608;SDS011;11982;50.810;4.442;2024-03-29T09:35:54;1.00;;;0.77;;
23608;SDS011;11982;50.810;4.442;2024-03-29T09:38:20;3.38;;;1.02;;
23608;SDS011;11982;50.810;4.442;2024-03-29T09:40:46;2.38;;;1.00;;
23608;SDS011;11982;50.810;4.442;2024-03-29T09:43:16;2.15;;;0.90;;
23608;SDS011;11982;50.810;4.442;2024-03-29T09:45:42;4.05;;;1.17;;
23608;SDS011;11982;50.810;4.442;2024-03-29T09:48:09;4.00;;;1.42;;
23608;SDS011;11982;50.810;4.442;2024-03-29T09:50:35;1.40;;;0.90;;
23608;SDS011;11982;50.810;4.442;2024-03-29T09:53:01;3.72;;;1.15;;
23608;SDS011;11982;50.810;4.442;2024-03-29T09:55:27;1.90;;;1.00;;
23608;SDS011;11982;50.810;4.442;2024-03-29T09:57:54;1.48;;;1.02;;
23608;SDS011;11982;50.810;4.442;2024-03-29T10:00:21;2.03;;;1.25;;
23608;SDS011;11982;50.810;4.442;2024-03-29T10:02:47;1.45;;;1.10;;
23608;SDS011;11982;50.810;4.442;2024-03-29T10:05:15;3.22;;;1.73;;
23608;SDS011;11982;50.810;4.442;2024-03-29T10:07:41;2.70;;;1.33;;
23608;SDS011;11982;50.810;4.442;2024-03-29T10:10:09;2.28;;;1.30;;
23608;SDS011;11982;50.810;4.442;2024-03-29T10:12:36;6.20;;;1.75;;
23608;SDS011;11982;50.810;4.442;2024-03-29T10:15:02;2.88;;;1.52;;
23608;SDS011;11982;50.810;4.442;2024-03-29T10:17:39;2.85;;;1.80;;
23608;SDS011;11982;50.810;4.442;2024-03-29T10:20:10;4.95;;;1.40;;
23608;SDS011;11982;50.810;4.442;2024-03-29T10:22:43;1.65;;;1.48;;
23608;SDS011;11982;50.810;4.442;2024-03-29T10:25:10;5.05;;;1.45;;
23608;SDS011;11982;50.810;4.442;2024-03-29T10:27:36;4.40;;;1.40;;
23608;SDS011;11982;50.810;4.442;2024-03-29T10:30:03;1.73;;;1.10;;
23608;SDS011;11982;50.810;4.442;2024-03-29T10:32:29;4.93;;;1.33;;
23608;SDS011;11982;50.810;4.442;2024-03-29T10:34:55;7.80;;;1.77;;
23608;SDS011;11982;50.810;4.442;2024-03-29T10:37:21;2.63;;;1.45;;
23608;SDS011;11982;50.810;4.442;2024-03-29T10:39:51;1.95;;;1.20;;
23608;SDS011;11982;50.810;4.442;2024-03-29T10:42:18;8.80;;;1.50;;
23608;SDS011;11982;50.810;4.442;2024-03-29T10:44:45;2.03;;;1.30;;
23608;SDS011;11982;50.810;4.442;2024-03-29T10:47:16;2.42;;;1.30;;
23608;SDS011;11982;50.810;4.442;2024-03-29T10:49:44;3.05;;;1.30;;
23608;SDS011;11982;50.810;4.442;2024-03-29T10:52:14;3.25;;;1.23;;
23608;SDS011;11982;50.810;4.442;2024-03-29T10:54:42;2.38;;;1.30;;
23608;SDS011;11982;50.810;4.442;2024-03-29T10:57:44;1.45;;;1.10;;
23608;SDS011;11982;50.810;4.442;2024-03-29T11:00:12;1.10;;;1.00;;
23608;SDS011;11982;50.810;4.442;2024-03-29T11:02:50;3.97;;;1.38;;
23608;SDS011;11982;50.810;4.442;2024-03-29T11:05:30;1.95;;;1.27;;
23608;SDS011;11982;50.810;4.442;2024-03-29T11:07:57;4.20;;;1.58;;
23608;SDS011;11982;50.810;4.442;2024-03-29T11:10:30;4.05;;;1.60;;
23608;SDS011;11982;50.810;4.442;2024-03-29T11:13:05;1.35;;;1.20;;
23608;SDS011;11982;50.810;4.442;2024-03-29T11:15:40;2.05;;;1.40;;
23608;SDS011;11982;50.810;4.442;2024-03-29T11:18:09;1.75;;;1.25;;
23608;SDS011;11982;50.810;4.442;2024-03-29T11:20:36;3.97;;;1.60;;
23608;SDS011;11982;50.810;4.442;2024-03-29T11:23:09;4.55;;;1.42;;
23608;SDS011;11982;50.810;4.442;2024-03-29T11:25:40;1.85;;;1.33;;
23608;SDS011;11982;50.810;4.442;2024-03-29T11:28:22;2.53;;;1.27;;
23608;SDS011;11982;50.810;4.442;2024-03-29T11:30:55;2.35;;;1.20;;
23608;SDS011;11982;50.810;4.442;2024-03-29T11:38:52;3.05;;;1.05;;
23608;SDS011;11982;50.810;4.442;2024-03-29T11:41:24;1.05;;;0.95;;
23608;SDS011;11982;50.810;4.442;2024-03-29T11:43:55;2.67;;;1.00;;
23608;SDS011;11982;50.810;4.442;2024-03-29T11:46:21;1.65;;;1.13;;
23608;SDS011;11982;50.810;4.442;2024-03-29T11:48:48;3.45;;;0.90;;
23608;SDS011;11982;50.810;4.442;2024-03-29T11:51:20;2.50;;;1.10;;
23608;SDS011;11982;50.810;4.442;2024-03-29T11:53:49;2.38;;;0.75;;
23608;SDS011;11982;50.810;4.442;2024-03-29T11:56:18;1.13;;;0.70;;
23608;SDS011;11982;50.810;4.442;2024-03-29T11:58:44;1.10;;;0.98;;
23608;SDS011;11982;50.810;4.442;2024-03-29T12:01:10;0.80;;;0.68;;
23608;SDS011;11982;50.810;4.442;2024-03-29T12:03:39;1.27;;;1.00;;
23608;SDS011;11982;50.810;4.442;2024-03-29T12:06:06;2.25;;;1.63;;
23608;SDS011;11982;50.810;4.442;2024-03-29T12:08:33;1.08;;;0.90;;
23608;SDS011;11982;50.810;4.442;2024-03-29T12:11:08;1.42;;;0.70;;
23608;SDS011;11982;50.810;4.442;2024-03-29T12:13:34;1.00;;;0.65;;
23608;SDS011;11982;50.810;4.442;2024-03-29T12:16:00;4.50;;;0.70;;
23608;SDS011;11982;50.810;4.442;2024-03-29T12:18:26;1.08;;;0.52;;
23608;SDS011;11982;50.810;4.442;2024-03-29T12:20:58;1.85;;;0.82;;
23608;SDS011;11982;50.810;4.442;2024-03-29T12:23:24;2.58;;;0.50;;
23608;SDS011;11982;50.810;4.442;2024-03-29T12:25:53;1.10;;;0.40;;
23608;SDS011;11982;50.810;4.442;2024-03-29T12:28:22;0.98;;;0.63;;
23608;SDS011;11982;50.810;4.442;2024-03-29T12:30:48;2.70;;;0.65;;
23608;SDS011;11982;50.810;4.442;2024-03-29T12:33:15;2.50;;;0.60;;
23608;SDS011;11982;50.810;4.442;2024-03-29T12:35:45;2.47;;;0.70;;
23608;SDS011;11982;50.810;4.442;2024-03-29T12:38:17;2.20;;;0.77;;
23608;SDS011;11982;50.810;4.442;2024-03-29T12:40:47;1.73;;;0.90;;
23608;SDS011;11982;50.810;4.442;2024-03-29T12:43:14;1.60;;;1.30;;
23608;SDS011;11982;50.810;4.442;2024-03-29T12:45:43;3.65;;;1.50;;
23608;SDS011;11982;50.810;4.442;2024-03-29T12:48:11;3.13;;;1.10;;
23608;SDS011;11982;50.810;4.442;2024-03-29T12:50:39;1.95;;;0.82;;
23608;SDS011;11982;50.810;4.442;2024-03-29T12:53:06;3.00;;;1.05;;
23608;SDS011;11982;50.810;4.442;2024-03-29T12:55:33;2.03;;;0.70;;
23608;SDS011;11982;50.810;4.442;2024-03-29T12:58:01;0.47;;;0.40;;
23608;SDS011;11982;50.810;4.442;2024-03-29T13:00:29;1.17;;;0.50;;
23608;SDS011;11982;50.810;4.442;2024-03-29T13:02:56;1.20;;;0.68;;
23608;SDS011;11982;50.810;4.442;2024-03-29T13:05:22;1.55;;;0.52;;
23608;SDS011;11982;50.810;4.442;2024-03-29T13:07:48;2.90;;;0.57;;
23608;SDS011;11982;50.810;4.442;2024-03-29T13:10:14;0.77;;;0.50;;
23608;SDS011;11982;50.810;4.442;2024-03-29T13:12:46;0.73;;;0.28;;
23608;SDS011;11982;50.810;4.442;2024-03-29T13:17:50;0.57;;;0.35;;
23608;SDS011;11982;50.810;4.442;2024-03-29T13:20:16;1.45;;;0.45;;
23608;SDS011;11982;50.810;4.442;2024-03-29T13:22:43;2.20;;;0.70;;
23608;SDS011;11982;50.810;4.442;2024-03-29T13:25:14;1.00;;;0.50;;
23608;SDS011;11982;50.810;4.442;2024-03-29T13:27:41;1.75;;;0.50;;
23608;SDS011;11982;50.810;4.442;2024-03-29T13:30:07;2.35;;;0.50;;
23608;SDS011;11982;50.810;4.442;2024-03-29T13:32:34;1.75;;;0.43;;
23608;SDS011;11982;50.810;4.442;2024-03-29T13:35:01;1.77;;;0.40;;
23608;SDS011;11982;50.810;4.442;2024-03-29T13:37:30;2.72;;;0.60;;
23608;SDS011;11982;50.810;4.442;2024-03-29T13:39:59;0.82;;;0.40;;
23608;SDS011;11982;50.810;4.442;2024-03-29T13:42:24;1.33;;;0.80;;
23608;SDS011;11982;50.810;4.442;2024-03-29T13:44:51;2.47;;;0.65;;
23608;SDS011;11982;50.810;4.442;2024-03-29T13:47:17;0.70;;;0.68;;
23608;SDS011;11982;50.810;4.442;2024-03-29T13:49:43;1.70;;;1.20;;
23608;SDS011;11982;50.810;4.442;2024-03-29T13:52:11;3.95;;;1.20;;
23608;SDS011;11982;50.810;4.442;2024-03-29T13:54:37;2.05;;;0.95;;
23608;SDS011;11982;50.810;4.442;2024-03-29T13:57:03;5.57;;;0.90;;
23608;SDS011;11982;50.810;4.442;2024-03-29T13:59:29;1.63;;;1.10;;
23608;SDS011;11982;50.810;4.442;2024-03-29T14:01:55;1.38;;;1.27;;
23608;SDS011;11982;50.810;4.442;2024-03-29T14:04:21;5.75;;;1.42;;
23608;SDS011;11982;50.810;4.442;2024-03-29T14:06:47;2.22;;;1.20;;
23608;SDS011;11982;50.810;4.442;2024-03-29T14:09:13;3.90;;;1.00;;
23608;SDS011;11982;50.810;4.442;2024-03-29T14:11:39;2.33;;;1.33;;
23608;SDS011;11982;50.810;4.442;2024-03-29T14:14:04;3.15;;;1.45;;
23608;SDS011;11982;50.810;4.442;2024-03-29T14:16:32;1.58;;;0.95;;
23608;SDS011;11982;50.810;4.442;2024-03-29T14:18:58;2.92;;;1.00;;
23608;SDS011;11982;50.810;4.442;2024-03-29T14:21:24;6.95;;;1.10;;
23608;SDS011;11982;50.810;4.442;2024-03-29T14:23:50;1.95;;;0.95;;
23608;SDS011;11982;50.810;4.442;2024-03-29T14:26:15;5.13;;;1.10;;
23608;SDS011;11982;50.810;4.442;2024-03-29T14:28:41;3.53;;;0.70;;
23608;SDS011;11982;50.810;4.442;2024-03-29T14:31:07;3.65;;;1.13;;
23608;SDS011;11982;50.810;4.442;2024-03-29T14:33:33;2.47;;;0.80;;
23608;SDS011;11982;50.810;4.442;2024-03-29T14:35:59;1.55;;;0.73;;
23608;SDS011;11982;50.810;4.442;2024-03-29T14:38:24;1.45;;;1.00;;
23608;SDS011;11982;50.810;4.442;2024-03-29T14:40:50;1.25;;;0.70;;
23608;SDS011;11982;50.810;4.442;2024-03-29T14:43:16;3.50;;;0.80;;
23608;SDS011;11982;50.810;4.442;2024-03-29T14:45:43;3.05;;;0.73;;
23608;SDS011;11982;50.810;4.442;2024-03-29T14:48:09;1.15;;;0.65;;
23608;SDS011;11982;50.810;4.442;2024-03-29T14:50:34;3.95;;;0.75;;
23608;SDS011;11982;50.810;4.442;2024-03-29T14:53:00;3.05;;;0.90;;
23608;SDS011;11982;50.810;4.442;2024-03-29T14:55:26;2.60;;;0.93;;